Time;durP1;ratioP1;P1;durP2;ratioP2;P2;SDS_P1;SDS_P2;PMS_P1;PMS_P2;Temp;Humidity;BMP_temperature;BMP_pressure;BME280_temperature;BME280_humidity;BME280_pressure;Samples;Min_cycle;Max_cycle;Signal;HPM_P1;HPM_P2
2020/12/24 00:01:50;;;;;;;28.10;13.65;;;11.50;65.90;;;;;;5009808;28;20045;-68
2020/12/24 00:04:15;;;;;;;31.08;14.43;;;11.50;65.90;;;;;;5003642;28;20049;-67
2020/12/24 00:06:41;;;;;;;35.20;15.60;;;11.50;65.90;;;;;;4999371;28;20415;-68
2020/12/24 00:09:07;;;;;;;32.38;15.70;;;11.50;66.00;;;;;;5006468;28;20049;-68
2020/12/24 00:11:32;;;;;;;35.10;16.65;;;11.50;66.10;;;;;;4990240;28;20034;-67
2020/12/24 00:13:58;;;;;;;34.05;16.48;;;11.40;65.80;;;;;;4999716;28;20038;-68
2020/12/24 00:16:23;;;;;;;33.80;17.40;;;11.40;65.80;;;;;;5007062;28;20046;-68
2020/12/24 00:18:49;;;;;;;35.05;16.42;;;11.30;65.80;;;;;;5011800;28;20065;-67
2020/12/24 00:21:15;;;;;;;31.52;16.30;;;11.30;65.90;;;;;;5002858;28;20052;-68
2020/12/24 00:23:40;;;;;;;32.60;15.85;;;11.20;65.80;;;;;;5008700;28;20038;-68
2020/12/24 00:26:06;;;;;;;35.42;15.95;;;11.20;65.80;;;;;;4998456;28;20034;-68
2020/12/24 00:28:32;;;;;;;31.52;15.20;;;11.10;65.80;;;;;;5001065;28;20064;-67
2020/12/24 00:30:59;;;;;;;30.52;14.60;;;11.10;65.90;;;;;;5003794;28;20034;-67
2020/12/24 00:33:24;;;;;;;29.45;13.52;;;11.10;65.90;;;;;;5000741;28;20049;-68
2020/12/24 00:35:50;;;;;;;28.65;12.85;;;11.00;65.90;;;;;;4999256;28;20029;-68
2020/12/24 00:38:16;;;;;;;22.02;11.98;;;11.00;65.90;;;;;;5004779;28;20501;-67
2020/12/24 00:40:41;;;;;;;24.90;11.60;;;11.00;66.00;;;;;;5001441;28;20565;-68
2020/12/24 00:43:07;;;;;;;23.23;10.93;;;10.90;66.00;;;;;;5004616;28;20033;-68
2020/12/24 00:45:32;;;;;;;24.83;11.15;;;10.90;65.90;;;;;;5002727;28;20766;-68
2020/12/24 00:47:58;;;;;;;19.77;10.75;;;10.90;66.10;;;;;;5003609;28;20045;-68
2020/12/24 00:50:24;;;;;;;21.40;11.57;;;10.80;66.10;;;;;;5003099;28;20033;-68
2020/12/24 00:52:49;;;;;;;17.20;10.43;;;10.80;66.00;;;;;;5004430;28;20049;-68
2020/12/24 00:55:15;;;;;;;21.25;11.07;;;10.80;66.10;;;;;;5004836;28;20041;-68
2020/12/24 00:57:40;;;;;;;21.60;10.43;;;10.80;66.20;;;;;;5012182;28;21932;-68
2020/12/24 01:00:07;;;;;;;18.05;9.77;;;10.80;66.00;;;;;;5014043;28;20037;-68
2020/12/24 01:02:34;;;;;;;17.63;9.25;;;10.80;66.00;;;;;;5011809;28;20148;-68
2020/12/24 01:05:00;;;;;;;15.13;8.07;;;10.70;66.00;;;;;;5003294;28;20038;-68
2020/12/24 01:07:25;;;;;;;12.23;7.82;;;10.70;65.90;;;;;;5004977;28;20068;-68
2020/12/24 01:09:51;;;;;;;15.52;7.35;;;10.70;66.00;;;;;;5007530;28;20639;-68
2020/12/24 01:12:17;;;;;;;13.48;7.40;;;10.70;66.00;;;;;;4991131;28;20520;-68
2020/12/24 01:14:44;;;;;;;11.02;6.70;;;10.60;66.00;;;;;;5011570;28;21900;-67
2020/12/24 01:17:09;;;;;;;12.48;6.93;;;10.60;66.10;;;;;;5014007;28;20052;-67
2020/12/24 01:19:35;;;;;;;14.98;6.72;;;10.60;66.10;;;;;;4995827;28;20041;-68
2020/12/24 01:22:01;;;;;;;13.73;6.65;;;10.60;66.10;;;;;;5008011;28;20131;-68
2020/12/24 01:24:27;;;;;;;13.45;6.95;;;10.60;66.10;;;;;;5015259;28;20034;-67
2020/12/24 01:26:52;;;;;;;11.20;6.28;;;10.60;66.10;;;;;;5019432;28;20049;-67
2020/12/24 01:29:18;;;;;;;17.17;7.32;;;10.60;66.10;;;;;;5019160;28;20042;-68
2020/12/24 01:31:52;;;;;;;13.70;6.80;;;10.60;66.10;;;;;;5011059;28;20065;-67
2020/12/24 01:34:19;;;;;;;12.45;7.07;;;10.60;66.10;;;;;;5014051;28;20044;-68
2020/12/24 01:36:45;;;;;;;16.10;7.25;;;10.50;66.10;;;;;;5011068;28;20084;-68
2020/12/24 01:39:11;;;;;;;19.55;8.43;;;10.50;66.80;;;;;;5011963;28;20049;-67
2020/12/24 01:41:37;;;;;;;20.20;8.20;;;10.50;66.20;;;;;;5009025;28;20766;-67
2020/12/24 01:44:03;;;;;;;18.95;8.60;;;10.50;66.10;;;;;;5011579;28;20135;-67
2020/12/24 01:46:29;;;;;;;17.08;8.98;;;10.50;66.20;;;;;;5016389;28;20119;-68
2020/12/24 01:48:54;;;;;;;20.13;8.82;;;10.50;66.30;;;;;;5014640;28;20124;-68
2020/12/24 01:51:28;;;;;;;17.77;8.80;;;10.50;66.20;;;;;;5009111;28;20045;-68
2020/12/24 01:53:56;;;;;;;21.23;8.73;;;10.50;66.10;;;;;;5008664;28;20029;-68
2020/12/24 01:56:22;;;;;;;20.70;9.05;;;10.40;66.10;;;;;;5006038;28;20605;-68
2020/12/24 01:58:50;;;;;;;19.17;8.25;;;10.40;66.10;;;;;;4991422;28;20040;-68
2020/12/24 02:01:15;;;;;;;19.75;8.30;;;10.40;66.10;;;;;;5004939;28;20405;-68
2020/12/24 02:03:41;;;;;;;15.25;6.88;;;10.40;66.10;;;;;;5006575;28;20034;-68
2020/12/24 02:06:07;;;;;;;16.00;6.28;;;10.40;66.10;;;;;;5010724;28;20037;-68
2020/12/24 02:08:33;;;;;;;16.08;6.20;;;10.40;66.10;;;;;;5005961;28;20037;-68
2020/12/24 02:10:59;;;;;;;15.15;5.57;;;10.30;66.10;;;;;;4990908;28;20029;-68
2020/12/24 02:13:25;;;;;;;11.25;5.28;;;10.30;66.10;;;;;;5007297;28;20046;-68
2020/12/24 02:15:51;;;;;;;13.07;6.30;;;10.30;66.10;;;;;;5006114;28;20033;-67
2020/12/24 02:18:17;;;;;;;12.60;6.43;;;10.20;66.10;;;;;;5009124;28;21768;-68
2020/12/24 02:20:43;;;;;;;15.48;7.22;;;10.20;66.10;;;;;;5009140;28;20037;-68
2020/12/24 02:23:09;;;;;;;12.30;7.20;;;10.20;66.80;;;;;;4987958;28;20531;-68
2020/12/24 02:25:36;;;;;;;14.40;6.78;;;10.10;66.10;;;;;;5012292;28;20041;-68
2020/12/24 02:28:02;;;;;;;17.73;6.72;;;10.10;66.30;;;;;;5008178;28;20068;-67
2020/12/24 02:30:27;;;;;;;15.15;6.68;;;10.10;66.30;;;;;;5011651;28;20115;-68
2020/12/24 02:32:53;;;;;;;12.10;5.85;;;10.10;66.40;;;;;;5009078;28;20513;-67
2020/12/24 02:35:19;;;;;;;11.23;6.43;;;10.10;66.40;;;;;;5011545;28;20120;-67
2020/12/24 02:37:45;;;;;;;12.13;6.38;;;10.00;66.30;;;;;;5009890;28;20132;-68
2020/12/24 02:40:10;;;;;;;14.90;6.57;;;10.00;66.40;;;;;;5006351;28;20045;-67
2020/12/24 02:42:36;;;;;;;18.38;6.78;;;10.00;66.40;;;;;;5005209;28;20057;-67
2020/12/24 02:45:07;;;;;;;12.77;6.82;;;10.00;67.10;;;;;;5006455;28;20046;-67
2020/12/24 02:47:36;;;;;;;14.35;6.47;;;10.00;66.50;;;;;;5012849;28;20096;-68
2020/12/24 02:50:04;;;;;;;13.90;6.82;;;10.00;66.50;;;;;;5012407;28;20099;-67
2020/12/24 02:52:30;;;;;;;14.55;6.95;;;10.00;66.50;;;;;;5008178;28;20418;-67
2020/12/24 02:54:55;;;;;;;17.17;8.57;;;10.00;66.50;;;;;;5004473;28;20055;-68
2020/12/24 02:57:21;;;;;;;20.67;8.48;;;10.00;66.50;;;;;;5008155;28;20103;-67
2020/12/24 02:59:47;;;;;;;15.55;8.68;;;10.10;66.50;;;;;;5018068;28;20484;-67
2020/12/24 03:02:15;;;;;;;17.00;7.68;;;10.10;66.40;;;;;;5009868;28;20040;-67
2020/12/24 03:04:40;;;;;;;15.82;7.50;;;10.10;66.40;;;;;;5005889;28;20521;-67
2020/12/24 03:07:06;;;;;;;15.15;6.57;;;10.10;66.30;;;;;;5003515;28;20587;-67
2020/12/24 03:09:31;;;;;;;12.18;6.63;;;10.10;66.30;;;;;;4999897;28;20526;-67
2020/12/24 03:11:57;;;;;;;14.27;7.28;;;10.10;66.30;;;;;;5004001;28;20057;-67
2020/12/24 03:14:23;;;;;;;11.88;5.70;;;10.10;66.30;;;;;;5009553;28;20609;-67
2020/12/24 03:16:48;;;;;;;12.00;5.80;;;10.10;66.20;;;;;;5013231;28;20045;-67
2020/12/24 03:19:14;;;;;;;13.32;6.00;;;10.10;66.20;;;;;;5012811;28;20120;-67
2020/12/24 03:21:40;;;;;;;12.95;6.18;;;10.10;66.10;;;;;;5014901;28;20111;-67
2020/12/24 03:24:06;;;;;;;13.77;6.22;;;10.10;66.10;;;;;;5009147;28;20030;-67
2020/12/24 03:26:32;;;;;;;13.32;6.65;;;10.10;66.10;;;;;;5008617;28;20052;-67
2020/12/24 03:28:58;;;;;;;13.88;6.35;;;10.10;66.10;;;;;;5006430;28;20406;-67
2020/12/24 03:31:26;;;;;;;14.07;6.78;;;10.10;66.10;;;;;;5004334;28;20160;-68
2020/12/24 03:33:53;;;;;;;12.75;6.72;;;10.10;66.10;;;;;;5009214;28;20052;-68
2020/12/24 03:36:20;;;;;;;16.92;7.35;;;10.10;66.10;;;;;;4993825;28;20187;-67
2020/12/24 03:38:45;;;;;;;17.58;7.32;;;10.00;66.00;;;;;;5011351;28;20395;-67
2020/12/24 03:41:11;;;;;;;15.00;7.28;;;10.00;66.10;;;;;;5003734;28;20052;-67
2020/12/24 03:43:37;;;;;;;22.13;9.23;;;10.00;66.00;;;;;;4994765;28;20037;-67
2020/12/24 03:46:03;;;;;;;16.88;7.55;;;10.00;66.00;;;;;;5009094;28;20033;-67
2020/12/24 03:48:28;;;;;;;18.35;7.90;;;10.00;66.00;;;;;;5001028;28;20617;-67
2020/12/24 03:50:54;;;;;;;15.85;7.78;;;10.00;66.00;;;;;;5006690;28;20048;-67
2020/12/24 03:53:20;;;;;;;16.60;7.55;;;10.00;66.00;;;;;;5008619;28;20123;-67
2020/12/24 03:55:46;;;;;;;15.10;6.45;;;9.90;65.80;;;;;;5005231;28;20038;-68
2020/12/24 03:58:11;;;;;;;9.35;5.68;;;9.90;65.80;;;;;;5008850;28;20088;-67
2020/12/24 04:00:39;;;;;;;10.77;5.40;;;9.90;65.80;;;;;;5001708;28;21021;-68
2020/12/24 04:03:05;;;;;;;13.93;4.90;;;9.90;65.80;;;;;;5004442;28;20482;-68
2020/12/24 04:05:31;;;;;;;7.43;4.05;;;9.90;65.80;;;;;;5003901;28;20123;-68
2020/12/24 04:07:56;;;;;;;7.32;3.67;;;9.80;65.70;;;;;;5005703;28;24124;-67
2020/12/24 04:10:22;;;;;;;8.65;3.10;;;9.80;65.50;;;;;;5002073;28;20406;-68
2020/12/24 04:12:47;;;;;;;7.50;3.28;;;9.80;65.40;;;;;;5007103;28;20095;-68
2020/12/24 04:15:13;;;;;;;5.55;3.17;;;9.70;65.40;;;;;;5005982;28;20155;-67
2020/12/24 04:17:39;;;;;;;5.50;3.30;;;9.70;65.40;;;;;;5001682;28;20140;-67
2020/12/24 04:20:04;;;;;;;4.75;3.05;;;9.70;65.40;;;;;;5005452;28;21059;-67
2020/12/24 04:22:30;;;;;;;6.82;3.00;;;9.60;65.30;;;;;;4994461;28;20211;-67
2020/12/24 04:24:56;;;;;;;5.20;2.78;;;9.50;65.40;;;;;;5003559;28;20045;-67
2020/12/24 04:27:23;;;;;;;5.13;2.90;;;9.50;65.40;;;;;;5006076;28;21622;-67
2020/12/24 04:29:49;;;;;;;7.78;2.80;;;9.50;65.40;;;;;;5013761;28;20110;-67
2020/12/24 04:32:15;;;;;;;5.75;3.20;;;9.50;65.50;;;;;;5009478;28;20140;-67
2020/12/24 04:34:40;;;;;;;5.57;3.40;;;9.50;65.60;;;;;;5001432;28;20030;-67
2020/12/24 04:37:06;;;;;;;8.07;2.95;;;9.50;65.50;;;;;;5013734;28;20033;-67
2020/12/24 04:39:32;;;;;;;8.32;2.80;;;9.50;65.40;;;;;;5013728;28;20436;-67
2020/12/24 04:41:59;;;;;;;6.70;3.17;;;9.50;65.40;;;;;;5013152;28;20462;-67
2020/12/24 04:44:28;;;;;;;5.57;3.05;;;9.40;65.30;;;;;;5019693;28;20041;-67
2020/12/24 04:46:57;;;;;;;8.23;3.10;;;9.40;66.10;;;;;;5015178;28;20072;-67
2020/12/24 04:49:30;;;;;;;5.35;3.20;;;9.40;65.50;;;;;;5018289;28;20046;-68
2020/12/24 04:52:00;;;;;;;5.22;3.35;;;9.40;65.40;;;;;;5013002;28;20043;-67
2020/12/24 04:54:27;;;;;;;6.43;3.28;;;9.40;65.40;;;;;;5017030;28;20033;-67
2020/12/24 04:56:52;;;;;;;5.72;3.15;;;9.50;65.40;;;;;;5017998;28;20037;-67
2020/12/24 04:59:18;;;;;;;5.90;3.55;;;9.50;65.30;;;;;;5010645;28;20095;-67
2020/12/24 05:01:49;;;;;;;9.80;3.33;;;9.50;65.30;;;;;;5005631;28;20053;-67
2020/12/24 05:04:17;;;;;;;4.85;3.20;;;9.50;65.20;;;;;;5008050;28;20048;-67
2020/12/24 05:06:43;;;;;;;7.22;3.28;;;9.50;65.10;;;;;;5012580;28;20038;-67
2020/12/24 05:09:09;;;;;;;8.25;3.10;;;9.50;65.10;;;;;;4992964;28;20095;-67
2020/12/24 05:11:36;;;;;;;4.60;2.63;;;9.50;65.10;;;;;;5008781;28;20037;-67
2020/12/24 05:14:22;;;;;;;3.78;2.20;;;9.50;65.00;;;;;;5001142;28;20120;-67
2020/12/24 05:16:57;;;;;;;5.57;2.70;;;9.40;64.90;;;;;;5013333;28;20037;-67
2020/12/24 05:19:23;;;;;;;4.88;2.80;;;9.40;65.00;;;;;;5015142;28;20044;-67
2020/12/24 05:21:49;;;;;;;5.88;2.95;;;9.40;65.00;;;;;;5016490;28;20497;-67
2020/12/24 05:24:26;;;;;;;5.45;2.85;;;9.40;65.00;;;;;;5014679;28;20048;-67
2020/12/24 05:26:53;;;;;;;5.60;2.47;;;9.40;65.10;;;;;;5007262;28;20041;-67
2020/12/24 05:29:19;;;;;;;6.00;2.95;;;9.40;65.00;;;;;;4999366;28;20037;-67
2020/12/24 05:31:50;;;;;;;9.90;2.70;;;9.50;65.00;;;;;;5007150;28;20232;-67
2020/12/24 05:34:19;;;;;;;9.88;2.80;;;9.50;65.00;;;;;;5010810;28;20042;-67
2020/12/24 05:36:45;;;;;;;4.15;1.90;;;9.50;64.90;;;;;;5016096;28;20045;-67
2020/12/24 05:39:11;;;;;;;5.03;2.45;;;9.50;64.90;;;;;;5013348;28;20049;-67
2020/12/24 05:41:38;;;;;;;7.07;1.95;;;9.50;65.00;;;;;;5004790;28;20202;-67
2020/12/24 05:44:05;;;;;;;4.05;1.98;;;9.40;65.00;;;;;;4991866;28;20041;-67
2020/12/24 05:46:48;;;;;;;9.07;1.70;;;9.50;65.00;;;;;;5007298;28;20041;-67
2020/12/24 05:49:17;;;;;;;7.47;2.00;;;9.40;64.80;;;;;;5010746;28;20049;-67
2020/12/24 05:51:50;;;;;;;7.32;1.73;;;9.40;64.90;;;;;;5008746;28;20052;-67
2020/12/24 05:54:16;;;;;;;6.50;1.70;;;9.40;64.90;;;;;;5007576;28;20037;-67
2020/12/24 05:56:43;;;;;;;8.77;1.60;;;9.40;64.80;;;;;;5013373;28;20568;-67
2020/12/24 05:59:27;;;;;;;9.55;1.88;;;9.40;64.90;;;;;;5010649;28;20408;-67
2020/12/24 06:01:56;;;;;;;6.47;1.48;;;9.40;65.00;;;;;;5011272;28;20034;-67
2020/12/24 06:04:35;;;;;;;4.60;1.60;;;9.40;64.90;;;;;;5007722;28;20041;-67
2020/12/24 06:07:07;;;;;;;6.60;1.60;;;9.40;65.70;;;;;;5011156;28;20046;-67
2020/12/24 06:09:41;;;;;;;9.88;2.28;;;9.40;64.90;;;;;;5007656;28;20061;-67
2020/12/24 06:12:17;;;;;;;4.03;1.70;;;9.40;64.90;;;;;;5017053;28;20037;-67
2020/12/24 06:14:47;;;;;;;5.80;1.67;;;9.40;64.90;;;;;;5018663;28;20048;-67
2020/12/24 06:17:14;;;;;;;6.05;1.70;;;9.50;64.90;;;;;;5011199;28;20819;-67
2020/12/24 06:19:41;;;;;;;3.55;1.40;;;9.50;64.90;;;;;;5007102;28;20045;-67
2020/12/24 06:22:08;;;;;;;7.93;1.70;;;9.50;64.80;;;;;;5010026;28;20037;-67
2020/12/24 06:24:38;;;;;;;7.75;1.67;;;9.50;64.70;;;;;;5008821;28;20608;-67
2020/12/24 06:27:15;;;;;;;6.78;1.85;;;9.50;65.40;;;;;;5006873;28;20164;-67
2020/12/24 06:29:45;;;;;;;7.82;2.00;;;9.50;64.60;;;;;;5007605;28;20576;-67
2020/12/24 06:32:12;;;;;;;6.03;1.80;;;9.60;64.70;;;;;;5010253;28;20033;-67
2020/12/24 06:34:41;;;;;;;6.60;1.95;;;9.60;64.60;;;;;;4989142;28;20034;-67
2020/12/24 06:37:15;;;;;;;8.02;1.50;;;9.60;64.60;;;;;;5003418;28;20041;-67
2020/12/24 06:39:45;;;;;;;5.32;1.50;;;9.60;64.60;;;;;;4999634;28;20118;-67
2020/12/24 06:42:35;;;;;;;16.55;1.70;;;9.60;65.30;;;;;;5004373;28;20386;-67
2020/12/24 06:45:06;;;;;;;7.07;1.80;;;9.60;64.60;;;;;;5007704;28;20497;-67
2020/12/24 06:47:32;;;;;;;5.28;1.80;;;9.60;64.50;;;;;;5007204;28;20068;-67
2020/12/24 06:49:57;;;;;;;10.98;2.10;;;9.60;64.50;;;;;;5006446;28;20060;-67
2020/12/24 06:52:30;;;;;;;4.82;1.85;;;9.60;64.50;;;;;;5004626;28;20139;-67
2020/12/24 06:55:16;;;;;;;7.00;1.90;;;9.70;64.50;;;;;;5000834;28;20042;-67
2020/12/24 06:57:42;;;;;;;8.95;2.00;;;9.70;64.40;;;;;;5004081;28;20643;-67
2020/12/24 07:00:23;;;;;;;12.00;2.20;;;9.60;64.40;;;;;;5005268;28;20052;-67
2020/12/24 07:02:50;;;;;;;9.43;2.45;;;9.70;64.50;;;;;;5004607;28;20050;-67
2020/12/24 07:05:41;;;;;;;9.23;2.38;;;9.70;64.50;;;;;;5002525;28;20048;-67
2020/12/24 07:08:07;;;;;;;6.95;2.60;;;9.70;64.60;;;;;;4998674;28;20080;-67
2020/12/24 07:10:47;;;;;;;6.53;2.40;;;9.70;64.50;;;;;;4998677;28;20044;-67
2020/12/24 07:13:42;;;;;;;11.57;2.20;;;9.70;64.60;;;;;;5000243;28;21002;-67
2020/12/24 07:16:13;;;;;;;5.40;2.70;;;9.70;64.60;;;;;;5004250;28;20579;-67
2020/12/24 07:18:40;;;;;;;9.13;2.38;;;9.70;64.50;;;;;;5005544;28;20041;-67
2020/12/24 07:21:10;;;;;;;10.05;2.70;;;9.70;64.60;;;;;;5006001;28;20043;-67
2020/12/24 07:23:37;;;;;;;6.00;2.38;;;9.70;64.60;;;;;;5008027;28;20941;-67
2020/12/24 07:26:07;;;;;;;11.10;2.58;;;9.70;64.60;;;;;;5004201;28;20041;-67
2020/12/24 07:28:34;;;;;;;7.13;2.88;;;9.70;64.60;;;;;;5004148;28;20036;-67
2020/12/24 07:31:03;;;;;;;5.80;3.15;;;9.70;64.60;;;;;;5007862;28;20037;-67
2020/12/24 07:33:29;;;;;;;13.82;3.40;;;9.70;64.60;;;;;;4989570;28;20037;-67
2020/12/24 07:35:55;;;;;;;17.80;3.28;;;9.70;64.60;;;;;;5007378;28;20033;-67
2020/12/24 07:38:22;;;;;;;10.00;3.38;;;9.70;64.60;;;;;;5010697;28;20037;-67
2020/12/24 07:40:48;;;;;;;8.57;3.60;;;9.70;64.50;;;;;;4986926;28;20037;-67
2020/12/24 07:43:14;;;;;;;10.52;4.80;;;9.70;64.60;;;;;;5003801;28;20460;-67
2020/12/24 07:45:42;;;;;;;19.13;3.92;;;9.70;64.60;;;;;;5007729;28;20197;-67
2020/12/24 07:48:26;;;;;;;11.23;3.78;;;9.70;64.70;;;;;;4997762;28;20402;-67
2020/12/24 07:50:52;;;;;;;7.22;4.07;;;9.60;64.70;;;;;;4992467;28;20034;-67
2020/12/24 07:53:26;;;;;;;11.68;4.75;;;9.60;64.70;;;;;;4996779;28;20041;-66
2020/12/24 07:55:52;;;;;;;13.27;4.22;;;9.70;64.80;;;;;;5002249;28;21795;-67
2020/12/24 07:58:18;;;;;;;15.20;4.55;;;9.70;64.80;;;;;;5004539;28;20034;-67
2020/12/24 08:00:52;;;;;;;11.75;4.35;;;9.70;64.80;;;;;;5004683;28;20512;-67
2020/12/24 08:03:19;;;;;;;10.13;4.32;;;9.60;64.80;;;;;;5006489;28;20033;-69
2020/12/24 08:05:46;;;;;;;10.90;4.43;;;9.60;64.80;;;;;;5006761;28;20119;-69
2020/12/24 08:08:13;;;;;;;17.08;4.78;;;9.60;64.80;;;;;;5004499;28;20043;-67
2020/12/24 08:10:42;;;;;;;9.95;4.30;;;9.60;64.90;;;;;;4991942;28;20076;-67
2020/12/24 08:13:09;;;;;;;10.15;4.60;;;9.60;65.00;;;;;;4986503;28;20150;-67
2020/12/24 08:15:39;;;;;;;13.13;5.00;;;9.60;65.00;;;;;;5000959;28;20045;-67
2020/12/24 08:18:07;;;;;;;14.32;5.13;;;9.60;65.00;;;;;;4997786;28;20541;-67
2020/12/24 08:20:56;;;;;;;9.60;4.50;;;9.70;65.00;;;;;;5001142;28;20051;-67
2020/12/24 08:23:22;;;;;;;11.43;4.90;;;9.60;65.00;;;;;;5003632;28;20047;-67
2020/12/24 08:25:52;;;;;;;11.70;5.20;;;9.60;64.80;;;;;;4997430;28;21319;-69
2020/12/24 08:28:19;;;;;;;13.60;5.30;;;9.60;65.60;;;;;;4994590;28;20029;-67
2020/12/24 08:30:46;;;;;;;11.68;5.03;;;9.60;65.00;;;;;;5001939;28;20048;-69
2020/12/24 08:33:13;;;;;;;11.63;5.25;;;9.60;65.00;;;;;;5009747;28;20363;-68
2020/12/24 08:35:41;;;;;;;10.18;5.55;;;9.60;65.00;;;;;;5005974;28;20033;-67
2020/12/24 08:38:16;;;;;;;12.15;5.45;;;9.60;65.00;;;;;;4998423;28;20049;-67
2020/12/24 08:40:41;;;;;;;16.45;5.95;;;9.60;65.70;;;;;;5001564;28;20045;-67
2020/12/24 08:43:09;;;;;;;14.80;5.03;;;9.60;65.00;;;;;;5008517;28;20066;-66
2020/12/24 08:45:52;;;;;;;15.50;5.07;;;9.60;65.00;;;;;;5009688;28;20045;-67
2020/12/24 08:48:27;;;;;;;21.27;5.57;;;9.60;65.00;;;;;;5007884;28;20037;-67
2020/12/24 08:50:53;;;;;;;15.77;5.43;;;9.50;65.00;;;;;;5002302;28;20045;-67
2020/12/24 08:53:23;;;;;;;13.18;5.55;;;9.60;65.20;;;;;;5006945;28;20034;-67
2020/12/24 08:55:49;;;;;;;19.13;6.45;;;9.60;65.40;;;;;;5000573;28;20888;-67
2020/12/24 08:58:14;;;;;;;16.67;5.68;;;9.70;65.50;;;;;;5002906;28;20498;-67
2020/12/24 09:00:40;;;;;;;17.60;5.88;;;9.80;65.50;;;;;;5005636;28;20516;-67
2020/12/24 09:03:29;;;;;;;15.95;6.25;;;9.90;65.30;;;;;;5007415;28;20048;-67
2020/12/24 09:05:55;;;;;;;16.48;5.63;;;9.90;65.20;;;;;;4997949;28;20042;-68
2020/12/24 09:08:28;;;;;;;12.38;5.95;;;10.00;65.10;;;;;;5004418;28;20056;-67
2020/12/24 09:10:56;;;;;;;14.52;5.85;;;10.00;65.00;;;;;;5002397;28;20121;-67
2020/12/24 09:13:21;;;;;;;13.90;6.13;;;10.00;65.00;;;;;;5002629;28;20072;-67
2020/12/24 09:15:47;;;;;;;15.15;6.03;;;10.00;64.90;;;;;;5001891;28;20045;-67
2020/12/24 09:18:15;;;;;;;14.57;6.00;;;10.00;64.90;;;;;;5012176;28;20140;-67
2020/12/24 09:20:41;;;;;;;18.10;6.18;;;10.00;64.90;;;;;;5009292;28;20696;-68
2020/12/24 09:23:15;;;;;;;17.55;5.50;;;10.10;64.90;;;;;;5012021;28;20037;-67
2020/12/24 09:25:45;;;;;;;13.40;5.40;;;10.10;64.90;;;;;;4996676;28;20071;-67
2020/12/24 09:28:24;;;;;;;13.57;4.88;;;10.20;65.00;;;;;;5009197;28;20575;-67
2020/12/24 09:30:53;;;;;;;12.82;5.20;;;10.20;65.00;;;;;;4994768;28;20041;-67
2020/12/24 09:33:19;;;;;;;11.35;4.55;;;10.20;64.90;;;;;;5006961;28;20041;-67
2020/12/24 09:35:44;;;;;;;19.38;5.50;;;10.20;64.90;;;;;;5006004;28;23667;-67
2020/12/24 09:38:11;;;;;;;12.90;4.78;;;10.30;65.00;;;;;;5005704;28;20083;-67
2020/12/24 09:40:40;;;;;;;17.00;5.38;;;10.30;64.80;;;;;;5004549;28;20052;-67
2020/12/24 09:43:07;;;;;;;10.93;5.05;;;10.30;64.80;;;;;;4990789;28;20616;-68
2020/12/24 09:45:33;;;;;;;15.20;5.40;;;10.30;64.90;;;;;;5003940;28;20041;-67
2020/12/24 09:48:01;;;;;;;13.57;5.20;;;10.40;65.00;;;;;;5005571;28;20041;-67
2020/12/24 09:50:27;;;;;;;12.35;5.18;;;10.50;64.90;;;;;;5000531;28;20037;-68
2020/12/24 09:52:53;;;;;;;11.40;4.35;;;10.50;64.90;;;;;;5004008;28;20149;-67
2020/12/24 09:55:18;;;;;;;15.63;5.43;;;10.50;64.80;;;;;;5006528;28;20042;-67
2020/12/24 09:57:44;;;;;;;12.10;4.97;;;10.60;64.80;;;;;;5009168;28;20069;-67
2020/12/24 10:00:11;;;;;;;16.17;4.50;;;10.60;64.60;;;;;;5006881;28;20099;-67
2020/12/24 10:02:37;;;;;;;16.33;5.25;;;10.60;64.60;;;;;;5007348;28;20213;-67
2020/12/24 10:05:04;;;;;;;12.63;4.57;;;10.60;64.60;;;;;;5003064;28;20042;-67
2020/12/24 10:07:30;;;;;;;14.55;4.38;;;10.60;64.60;;;;;;5011924;28;20409;-68
2020/12/24 10:09:55;;;;;;;13.82;4.93;;;10.60;64.80;;;;;;5008488;28;20436;-67
2020/12/24 10:12:22;;;;;;;14.30;4.70;;;10.60;64.80;;;;;;5012485;28;20128;-68
2020/12/24 10:14:48;;;;;;;16.55;4.90;;;10.60;64.80;;;;;;5009940;28;20522;-68
2020/12/24 10:17:17;;;;;;;11.18;4.65;;;10.60;64.90;;;;;;5005365;28;20052;-67
2020/12/24 10:19:43;;;;;;;15.02;4.72;;;10.60;65.00;;;;;;5005371;28;20037;-69
2020/12/24 10:22:10;;;;;;;15.95;4.82;;;10.60;64.90;;;;;;5015513;28;20033;-67
2020/12/24 10:24:36;;;;;;;16.17;4.20;;;10.60;64.70;;;;;;5008489;28;20493;-67
2020/12/24 10:27:02;;;;;;;9.85;4.07;;;10.60;64.80;;;;;;5009823;28;20405;-67
2020/12/24 10:29:28;;;;;;;11.80;4.30;;;10.60;64.90;;;;;;5013409;28;20029;-67
2020/12/24 10:31:53;;;;;;;10.48;4.53;;;10.70;65.20;;;;;;5020818;28;20030;-67
2020/12/24 10:34:19;;;;;;;14.55;4.80;;;10.80;65.50;;;;;;5023205;28;20152;-67
2020/12/24 10:36:45;;;;;;;9.38;3.97;;;10.90;65.70;;;;;;5004674;28;20045;-67
2020/12/24 10:39:10;;;;;;;10.38;4.70;;;11.10;65.70;;;;;;5017012;28;20159;-67
2020/12/24 10:41:37;;;;;;;11.20;5.00;;;11.30;65.50;;;;;;5015666;28;20156;-68
2020/12/24 10:44:04;;;;;;;12.07;3.95;;;11.40;65.20;;;;;;5015201;28;20041;-67
2020/12/24 10:46:30;;;;;;;14.88;4.32;;;11.50;65.10;;;;;;5020333;28;20398;-67
2020/12/24 10:48:58;;;;;;;13.85;5.43;;;11.60;65.00;;;;;;5014045;28;20034;-67
2020/12/24 10:51:24;;;;;;;11.77;4.65;;;11.70;65.00;;;;;;4990860;28;20034;-67
2020/12/24 10:53:50;;;;;;;11.65;4.05;;;11.80;64.70;;;;;;5015882;28;20406;-68
2020/12/24 10:56:16;;;;;;;11.52;3.67;;;11.80;64.50;;;;;;5010269;28;20026;-69
2020/12/24 10:58:42;;;;;;;6.80;4.07;;;11.90;64.40;;;;;;5011050;28;20049;-69
2020/12/24 11:01:16;;;;;;;10.10;3.50;;;11.90;64.50;;;;;;5009119;28;20034;-67
2020/12/24 11:03:42;;;;;;;7.45;3.10;;;12.00;64.30;;;;;;5012224;28;20040;-67
2020/12/24 11:06:08;;;;;;;8.20;3.05;;;12.00;64.40;;;;;;5010004;28;20033;-67
2020/12/24 11:08:34;;;;;;;7.55;3.05;;;12.10;64.40;;;;;;5011417;28;20051;-67
2020/12/24 11:11:01;;;;;;;7.82;3.00;;;12.20;64.00;;;;;;5014194;28;20034;-67
2020/12/24 11:13:27;;;;;;;13.85;3.45;;;12.10;63.60;;;;;;5013789;28;20567;-68
2020/12/24 11:15:53;;;;;;;13.98;3.58;;;12.10;63.40;;;;;;5006015;28;20048;-67
2020/12/24 11:18:19;;;;;;;6.38;2.20;;;12.10;63.30;;;;;;4992089;28;20065;-68
2020/12/24 11:20:45;;;;;;;5.95;2.70;;;12.10;63.20;;;;;;4999304;28;20716;-67
2020/12/24 11:23:10;;;;;;;8.48;2.70;;;12.00;63.10;;;;;;5003348;28;20037;-67
2020/12/24 11:25:37;;;;;;;10.80;2.10;;;12.00;63.00;;;;;;5007090;28;20120;-68
2020/12/24 11:28:03;;;;;;;11.18;2.60;;;12.00;63.00;;;;;;5004720;28;20070;-67
2020/12/24 11:30:29;;;;;;;16.55;2.97;;;12.00;63.20;;;;;;5003707;28;20049;-67
2020/12/24 11:32:55;;;;;;;11.75;2.55;;;12.00;63.40;;;;;;5007951;28;20045;-67
2020/12/24 11:35:21;;;;;;;10.48;2.53;;;12.00;63.40;;;;;;4991419;28;20037;-67
2020/12/24 11:37:47;;;;;;;9.18;2.10;;;12.10;63.20;;;;;;4988774;28;20033;-67
2020/12/24 11:40:13;;;;;;;8.77;2.47;;;12.20;63.80;;;;;;5007526;28;20048;-67
2020/12/24 11:42:39;;;;;;;13.20;2.70;;;12.20;63.30;;;;;;5012602;28;20117;-67
2020/12/24 11:45:05;;;;;;;8.52;2.78;;;12.20;62.90;;;;;;5016091;28;20486;-68
2020/12/24 11:47:33;;;;;;;8.55;2.25;;;12.20;62.80;;;;;;5007103;28;20093;-67
2020/12/24 11:49:59;;;;;;;12.85;3.20;;;12.20;62.80;;;;;;5016918;28;20033;-67
2020/12/24 11:52:24;;;;;;;8.70;2.53;;;12.20;62.60;;;;;;5013128;28;20482;-67
2020/12/24 11:54:50;;;;;;;13.40;3.08;;;12.20;62.60;;;;;;5007344;28;20034;-68
2020/12/24 11:57:15;;;;;;;16.38;3.33;;;12.20;62.70;;;;;;5015185;28;20106;-67
2020/12/24 11:59:41;;;;;;;11.43;3.47;;;12.20;62.90;;;;;;5015201;28;20375;-68
2020/12/24 12:02:07;;;;;;;12.02;2.92;;;12.30;62.80;;;;;;5012349;28;20136;-68
2020/12/24 12:04:32;;;;;;;13.02;3.22;;;12.30;62.80;;;;;;5018094;28;20112;-67
2020/12/24 12:06:58;;;;;;;8.43;3.60;;;12.40;62.80;;;;;;5019415;28;20065;-68
2020/12/24 12:09:23;;;;;;;12.25;3.28;;;12.40;62.70;;;;;;5001378;28;20109;-68
2020/12/24 12:11:49;;;;;;;8.15;3.03;;;12.40;62.50;;;;;;5016726;28;20506;-68
2020/12/24 12:14:15;;;;;;;11.50;4.15;;;12.40;62.40;;;;;;5009912;28;20042;-67
2020/12/24 12:16:40;;;;;;;16.48;4.00;;;12.40;62.30;;;;;;5014296;28;20041;-67
2020/12/24 12:19:06;;;;;;;16.23;3.90;;;12.40;62.40;;;;;;5011524;28;20512;-68
2020/12/24 12:21:35;;;;;;;11.88;3.78;;;12.30;62.40;;;;;;5009008;28;20037;-68
2020/12/24 12:24:01;;;;;;;17.45;4.03;;;12.30;62.20;;;;;;5014161;28;20044;-68
2020/12/24 12:26:26;;;;;;;9.55;3.80;;;12.30;62.20;;;;;;5016937;28;20033;-67
2020/12/24 12:28:52;;;;;;;11.95;3.58;;;12.30;62.20;;;;;;5015668;28;20068;-68
2020/12/24 12:31:20;;;;;;;12.82;4.68;;;12.20;62.20;;;;;;5000991;28;20037;-67
2020/12/24 12:33:47;;;;;;;16.25;4.75;;;12.20;62.40;;;;;;5018611;28;20547;-67
2020/12/24 12:36:13;;;;;;;10.75;3.83;;;12.10;62.50;;;;;;5018499;28;23950;-67
2020/12/24 12:38:38;;;;;;;11.23;4.15;;;12.10;62.50;;;;;;5014240;28;20042;-68
2020/12/24 12:41:04;;;;;;;13.13;3.92;;;12.10;62.70;;;;;;5010064;28;20041;-68
2020/12/24 12:43:29;;;;;;;12.27;4.30;;;12.10;62.80;;;;;;5011993;28;20068;-68
2020/12/24 12:45:55;;;;;;;17.65;4.82;;;12.10;62.80;;;;;;5009585;28;20038;-68